Time;durP1;ratioP1;P1;durP2;ratioP2;P2;SDS_P1;SDS_P2;PMS_P1;PMS_P2;Temp;Humidity;BMP_temperature;BMP_pressure;BME280_temperature;BME280_humidity;BME280_pressure;Samples;Min_cycle;Max_cycle;Signal;HPM_P1;HPM_P2
2022/01/26 00:06:42;;;;;;;35.35;21.60;;;5.90;54.20;;;;;;4993166;28;20081;-69
2022/01/26 00:09:10;;;;;;;37.03;20.83;;;5.90;54.20;;;;;;4992840;28;20545;-69
2022/01/26 00:11:36;;;;;;;35.45;21.23;;;5.90;54.40;;;;;;4992911;28;20041;-69
2022/01/26 00:14:03;;;;;;;29.88;20.77;;;5.90;54.50;;;;;;4993091;28;20037;-69
2022/01/26 00:16:38;;;;;;;31.95;20.48;;;5.90;54.60;;;;;;4993201;28;20026;-69
2022/01/26 00:19:06;;;;;;;34.88;21.20;;;5.90;55.00;;;;;;4992909;28;20026;-70
2022/01/26 00:21:36;;;;;;;32.17;21.13;;;5.90;54.60;;;;;;4991507;28;20034;-69
2022/01/26 00:24:21;;;;;;;32.28;20.60;;;5.90;54.70;;;;;;4992751;28;20137;-68
2022/01/26 00:29:24;;;;;;;31.08;20.75;;;5.70;54.50;;;;;;4992748;28;20031;-70
2022/01/26 00:33:06;;;;;;;35.05;21.25;;;5.70;54.60;;;;;;4992725;28;20041;-69
2022/01/26 00:40:51;;;;;;;29.42;19.02;;;5.70;54.70;;;;;;4996846;28;20443;-70
2022/01/26 00:43:19;;;;;;;33.15;20.40;;;5.60;54.60;;;;;;4996224;28;20049;-69
2022/01/26 00:45:46;;;;;;;30.20;19.13;;;5.70;54.80;;;;;;4996715;28;20026;-70
2022/01/26 00:48:19;;;;;;;31.88;19.45;;;5.70;54.90;;;;;;4996194;28;20479;-69
2022/01/26 00:50:50;;;;;;;32.95;20.10;;;5.70;54.80;;;;;;4996074;28;20038;-69
2022/01/26 00:53:16;;;;;;;34.47;19.67;;;5.70;55.10;;;;;;4996283;28;20022;-70
2022/01/26 00:55:42;;;;;;;38.63;20.08;;;5.70;55.10;;;;;;4994817;28;20027;-69
2022/01/26 00:58:08;;;;;;;30.00;20.13;;;5.70;55.50;;;;;;4996145;28;20025;-69
2022/01/26 01:00:34;;;;;;;30.48;19.42;;;5.50;55.00;;;;;;4996129;28;20037;-68
2022/01/26 01:03:01;;;;;;;28.83;18.58;;;5.50;55.60;;;;;;4996060;28;20057;-69
2022/01/26 01:05:34;;;;;;;31.05;18.50;;;5.50;55.60;;;;;;4996202;28;20034;-69
2022/01/26 01:08:08;;;;;;;27.77;17.92;;;5.50;55.60;;;;;;4996488;28;20034;-70
2022/01/26 01:10:34;;;;;;;29.83;18.45;;;5.50;56.20;;;;;;4996122;28;20023;-68
2022/01/26 01:13:00;;;;;;;27.17;18.50;;;5.50;55.70;;;;;;4995938;28;20022;-70
2022/01/26 01:15:28;;;;;;;29.23;18.52;;;5.60;55.50;;;;;;4996021;28;20397;-68
2022/01/26 01:18:06;;;;;;;28.27;19.30;;;5.50;55.40;;;;;;4995591;28;20026;-70
2022/01/26 01:31:27;;;;;;;27.60;18.00;;;5.50;55.10;;;;;;5014133;28;20058;-71
2022/01/26 01:33:53;;;;;;;29.27;18.33;;;5.50;55.50;;;;;;4995702;28;20029;-69
2022/01/26 01:36:21;;;;;;;27.38;18.00;;;5.40;55.20;;;;;;4995630;28;20028;-69
2022/01/26 01:38:47;;;;;;;29.83;18.08;;;5.40;55.30;;;;;;4995287;28;20058;-70
2022/01/26 01:41:13;;;;;;;24.83;17.13;;;5.40;55.20;;;;;;4995543;28;20119;-69
2022/01/26 01:43:38;;;;;;;29.60;18.25;;;5.30;55.40;;;;;;4995301;28;20031;-69
2022/01/26 01:46:05;;;;;;;28.17;17.73;;;5.30;55.70;;;;;;4995214;28;20554;-68
2022/01/26 01:48:33;;;;;;;25.90;17.67;;;5.30;55.30;;;;;;4994959;28;20468;-67
2022/01/26 01:57:26;;;;;;;26.02;17.17;;;5.20;56.00;;;;;;4956481;29;20106;-67
2022/01/26 01:59:52;;;;;;;28.42;17.90;;;5.20;55.90;;;;;;4956884;29;20023;-65
2022/01/26 02:02:17;;;;;;;30.92;19.00;;;5.20;56.20;;;;;;4957139;28;20039;-76
2022/01/26 02:04:43;;;;;;;27.88;17.80;;;5.20;55.90;;;;;;4958172;29;20055;-72
2022/01/26 02:07:13;;;;;;;28.65;17.42;;;5.20;55.80;;;;;;4958169;29;20023;-68
2022/01/26 02:09:39;;;;;;;32.80;20.65;;;5.20;55.70;;;;;;4957031;29;20160;-66
2022/01/26 02:12:14;;;;;;;28.67;18.00;;;5.20;56.50;;;;;;4956841;28;20023;-67
2022/01/26 02:14:45;;;;;;;30.13;17.73;;;5.20;55.60;;;;;;4956565;28;20110;-67
2022/01/26 02:20:07;;;;;;;27.60;18.70;;;5.30;55.50;;;;;;4956866;29;20110;-65
2022/01/26 02:55:36;;;;;;;27.02;17.10;;;4.80;55.90;;;;;;4955400;29;19942;-65
2022/01/26 03:01:02;;;;;;;25.98;16.30;;;4.70;55.80;;;;;;4955418;28;20094;-66
2022/01/26 03:03:38;;;;;;;27.55;16.20;;;4.80;55.70;;;;;;4956667;28;20506;-76
2022/01/26 03:06:09;;;;;;;24.98;15.80;;;4.70;55.50;;;;;;4957337;29;20045;-67
2022/01/26 03:08:43;;;;;;;26.38;16.65;;;4.70;55.60;;;;;;4955662;29;20038;-66
2022/01/26 03:11:11;;;;;;;24.17;16.17;;;4.70;55.70;;;;;;4955638;29;20114;-67
2022/01/26 03:13:43;;;;;;;24.63;16.00;;;4.70;55.70;;;;;;4954064;28;20027;-66
2022/01/26 03:16:14;;;;;;;23.38;15.68;;;4.70;55.40;;;;;;4955514;28;20027;-66
2022/01/26 03:18:54;;;;;;;23.98;15.77;;;4.70;55.60;;;;;;4955373;29;20031;-67
2022/01/26 03:21:27;;;;;;;23.63;16.55;;;4.70;55.70;;;;;;4955204;29;20460;-67
2022/01/26 03:34:31;;;;;;;27.85;16.52;;;4.50;56.00;;;;;;4956130;28;20110;-68
2022/01/26 03:37:01;;;;;;;27.20;16.63;;;4.50;56.10;;;;;;4955191;29;20031;-65
2022/01/26 03:39:28;;;;;;;26.27;16.00;;;4.50;56.10;;;;;;4955192;28;20098;-67
2022/01/26 03:42:03;;;;;;;24.95;16.55;;;4.50;56.10;;;;;;4955423;29;20047;-66
2022/01/26 03:44:29;;;;;;;25.50;16.63;;;4.60;56.40;;;;;;4955611;28;20384;-65
2022/01/26 03:46:54;;;;;;;26.83;16.73;;;4.50;56.50;;;;;;4955096;29;20023;-67
2022/01/26 03:49:20;;;;;;;22.63;15.48;;;4.50;56.60;;;;;;4955102;29;20031;-66
2022/01/26 03:51:46;;;;;;;23.17;15.32;;;4.50;56.90;;;;;;4955019;28;20106;-65
2022/01/26 03:54:13;;;;;;;22.40;15.88;;;4.50;56.90;;;;;;4954800;28;20480;-65
2022/01/26 03:56:39;;;;;;;23.20;16.05;;;4.50;56.50;;;;;;4954558;28;20043;-65
2022/01/26 03:59:05;;;;;;;23.45;15.13;;;4.50;56.20;;;;;;4954875;29;20031;-66
2022/01/26 04:01:32;;;;;;;22.63;14.55;;;4.40;56.30;;;;;;4954907;28;20035;-67
2022/01/26 04:03:57;;;;;;;21.58;14.88;;;4.40;56.40;;;;;;4937576;29;20034;-67
2022/01/26 04:06:24;;;;;;;22.30;14.55;;;4.40;56.20;;;;;;4954786;29;20387;-66
2022/01/26 04:08:50;;;;;;;28.35;16.23;;;4.40;56.20;;;;;;4954843;29;20034;-66
2022/01/26 04:13:49;;;;;;;24.63;15.77;;;4.50;56.50;;;;;;4958749;28;20427;-66
2022/01/26 04:16:14;;;;;;;24.00;15.13;;;4.50;56.30;;;;;;4941399;29;20153;-68
2022/01/26 04:18:41;;;;;;;21.38;14.30;;;4.40;56.20;;;;;;4958615;28;20496;-65
2022/01/26 04:24:00;;;;;;;22.73;15.05;;;4.40;56.10;;;;;;4928637;28;20143;-67
2022/01/26 04:26:36;;;;;;;24.33;15.18;;;4.40;56.30;;;;;;4958857;28;20416;-66
2022/01/26 04:29:07;;;;;;;24.02;15.45;;;4.40;56.50;;;;;;4958611;29;20081;-66
2022/01/26 04:31:33;;;;;;;21.98;15.23;;;4.40;56.70;;;;;;4958516;29;20027;-65
2022/01/26 04:33:59;;;;;;;21.88;15.40;;;4.50;56.70;;;;;;4958055;28;20034;-65
2022/01/26 04:36:31;;;;;;;22.63;14.95;;;4.40;56.40;;;;;;4958146;28;20110;-66
2022/01/26 04:39:01;;;;;;;23.33;15.80;;;4.30;56.80;;;;;;4958126;28;20023;-65
2022/01/26 04:41:39;;;;;;;24.40;14.88;;;4.20;56.70;;;;;;4958087;29;20043;-67
2022/01/26 04:44:11;;;;;;;24.27;14.60;;;4.30;57.00;;;;;;4958165;28;20038;-66
2022/01/26 04:46:37;;;;;;;23.50;15.03;;;4.30;57.10;;;;;;4957812;28;20493;-65
2022/01/26 04:49:03;;;;;;;26.15;15.57;;;4.40;56.90;;;;;;4957839;29;20024;-66
2022/01/26 04:51:30;;;;;;;24.25;14.93;;;4.40;57.00;;;;;;4958258;29;20055;-66
2022/01/26 04:53:56;;;;;;;22.42;14.50;;;4.40;56.60;;;;;;4957890;28;20035;-67
2022/01/26 04:56:22;;;;;;;24.15;15.50;;;4.40;56.90;;;;;;4957640;29;20138;-66
2022/01/26 04:58:47;;;;;;;21.92;15.27;;;4.40;57.20;;;;;;4957892;28;20078;-65
2022/01/26 05:01:13;;;;;;;22.13;14.45;;;4.40;57.20;;;;;;4957389;28;20038;-66
2022/01/26 05:03:39;;;;;;;22.60;14.65;;;4.40;56.90;;;;;;4957630;28;20035;-66
2022/01/26 05:06:04;;;;;;;22.80;15.07;;;4.30;57.00;;;;;;4956505;29;20031;-66
2022/01/26 05:08:30;;;;;;;23.42;15.00;;;4.30;57.10;;;;;;4957749;28;20042;-67
2022/01/26 05:10:56;;;;;;;26.42;15.05;;;4.20;57.20;;;;;;4957635;28;20479;-66
2022/01/26 05:13:22;;;;;;;23.17;14.88;;;4.20;58.00;;;;;;4940158;29;20522;-66
2022/01/26 05:15:47;;;;;;;26.55;14.57;;;4.20;57.50;;;;;;4957522;28;20040;-66
2022/01/26 05:18:13;;;;;;;22.55;15.40;;;4.20;57.50;;;;;;4957363;29;20502;-66
2022/01/26 05:20:39;;;;;;;23.58;16.38;;;4.10;57.70;;;;;;4957529;28;20023;-66
2022/01/26 05:23:05;;;;;;;26.05;17.25;;;4.10;57.70;;;;;;4956621;28;20071;-66
2022/01/26 05:25:30;;;;;;;22.70;16.83;;;4.10;57.70;;;;;;4957314;28;20440;-66
2022/01/26 05:27:56;;;;;;;22.92;15.15;;;4.10;57.80;;;;;;4957181;29;20027;-66
2022/01/26 05:30:24;;;;;;;22.40;15.45;;;4.10;57.90;;;;;;4957104;28;20019;-66
2022/01/26 05:32:49;;;;;;;23.45;15.23;;;4.10;58.10;;;;;;4957100;28;20030;-65
2022/01/26 05:35:15;;;;;;;23.77;14.93;;;4.10;58.30;;;;;;4956968;29;20127;-66
2022/01/26 05:37:41;;;;;;;27.98;16.50;;;4.10;58.30;;;;;;4957144;29;20055;-67
2022/01/26 05:40:07;;;;;;;25.95;16.83;;;4.10;58.20;;;;;;4957179;29;20127;-66
2022/01/26 05:42:35;;;;;;;24.20;16.13;;;4.10;58.00;;;;;;4956757;28;20090;-66
2022/01/26 05:45:02;;;;;;;25.27;15.00;;;4.10;58.50;;;;;;4957059;29;20019;-65
2022/01/26 05:47:28;;;;;;;23.15;16.50;;;4.00;58.70;;;;;;4956974;29;20046;-66
2022/01/26 05:49:54;;;;;;;24.35;16.05;;;4.10;58.50;;;;;;4957053;29;20480;-66
2022/01/26 05:52:19;;;;;;;21.08;15.50;;;4.10;58.50;;;;;;4956869;28;20034;-66
2022/01/26 05:54:45;;;;;;;25.42;16.95;;;4.10;58.60;;;;;;4957069;29;20023;-66
2022/01/26 05:57:11;;;;;;;23.50;16.27;;;4.00;58.40;;;;;;4956501;29;20055;-66
2022/01/26 05:59:36;;;;;;;24.73;15.80;;;4.00;58.50;;;;;;4956901;29;20460;-66
2022/01/26 06:02:02;;;;;;;26.35;16.10;;;3.90;58.60;;;;;;4939359;29;20035;-66
2022/01/26 06:04:28;;;;;;;24.98;15.93;;;3.80;58.60;;;;;;4956483;28;20019;-67
2022/01/26 06:06:54;;;;;;;37.28;16.25;;;3.80;58.70;;;;;;4956590;28;20341;-66
2022/01/26 06:09:20;;;;;;;21.42;14.88;;;3.80;58.80;;;;;;4956723;29;20106;-65
2022/01/26 06:11:46;;;;;;;22.60;14.52;;;3.90;59.30;;;;;;4956591;29;20417;-66
2022/01/26 06:14:11;;;;;;;22.77;14.73;;;3.90;59.10;;;;;;4956163;28;20023;-65
2022/01/26 06:16:37;;;;;;;24.38;15.45;;;3.90;58.90;;;;;;4956583;28;20030;-65
2022/01/26 06:19:03;;;;;;;21.88;14.50;;;4.00;58.90;;;;;;4956435;28;20219;-67
2022/01/26 06:21:29;;;;;;;21.77;15.00;;;4.00;58.90;;;;;;4956804;29;20039;-67
2022/01/26 06:23:55;;;;;;;29.25;15.48;;;4.00;59.20;;;;;;4957142;28;20019;-66
2022/01/26 06:26:20;;;;;;;23.92;14.98;;;4.00;58.90;;;;;;4957101;28;20384;-66
2022/01/26 06:28:46;;;;;;;24.85;15.10;;;4.00;58.80;;;;;;4956133;28;20376;-67
2022/01/26 06:31:15;;;;;;;23.08;15.80;;;4.10;58.80;;;;;;4956039;28;20039;-66
2022/01/26 06:33:42;;;;;;;24.23;15.13;;;4.00;59.10;;;;;;4955416;28;20058;-65
2022/01/26 06:36:12;;;;;;;25.48;15.52;;;4.00;58.70;;;;;;4955925;28;20050;-66
2022/01/26 06:38:43;;;;;;;28.75;15.30;;;4.00;58.90;;;;;;4955912;29;20028;-66
2022/01/26 06:41:09;;;;;;;22.27;14.45;;;4.00;58.70;;;;;;4955998;29;20063;-69
2022/01/26 06:43:44;;;;;;;22.00;14.55;;;3.90;59.20;;;;;;4955758;28;20454;-66
2022/01/26 06:46:10;;;;;;;23.65;13.57;;;3.90;59.10;;;;;;4955714;29;20126;-67
2022/01/26 06:51:04;;;;;;;19.60;13.50;;;3.90;59.10;;;;;;4955869;29;20023;-66
2022/01/26 06:53:30;;;;;;;26.13;13.93;;;4.00;58.90;;;;;;4955524;28;20478;-66
2022/01/26 06:55:56;;;;;;;22.63;13.52;;;4.10;58.80;;;;;;4955334;28;20047;-69
2022/01/26 06:58:23;;;;;;;20.55;13.88;;;4.10;58.70;;;;;;4956011;29;20031;-74
2022/01/26 07:00:49;;;;;;;23.15;13.93;;;4.20;58.50;;;;;;4955753;29;20101;-67
2022/01/26 07:03:16;;;;;;;28.10;14.52;;;4.20;58.50;;;;;;4955684;28;20027;-67
2022/01/26 07:05:42;;;;;;;22.27;13.73;;;4.20;58.30;;;;;;4955674;29;20060;-67
2022/01/26 07:08:08;;;;;;;21.98;14.00;;;4.40;58.70;;;;;;4955084;28;20050;-69
2022/01/26 07:10:34;;;;;;;27.13;14.95;;;4.50;58.70;;;;;;4951884;29;20023;-66
2022/01/26 07:13:02;;;;;;;23.98;13.98;;;4.60;58.40;;;;;;4954815;29;20023;-66
2022/01/26 07:23:44;;;;;;;24.90;14.10;;;4.90;57.80;;;;;;4954858;28;20097;-67
2022/01/26 07:26:10;;;;;;;21.67;13.65;;;5.00;57.40;;;;;;4955116;29;20420;-66
2022/01/26 07:28:38;;;;;;;21.17;13.38;;;5.00;57.40;;;;;;4937577;29;20070;-65
2022/01/26 07:31:05;;;;;;;25.33;13.55;;;5.10;57.60;;;;;;4954887;28;20074;-66
2022/01/26 07:33:32;;;;;;;25.10;14.68;;;5.10;57.40;;;;;;4954507;28;20437;-65
2022/01/26 07:35:58;;;;;;;21.75;13.73;;;5.20;57.30;;;;;;4954382;29;20046;-65
2022/01/26 07:38:27;;;;;;;25.05;13.90;;;5.20;57.10;;;;;;4953451;28;20062;-67
2022/01/26 07:40:54;;;;;;;25.30;13.65;;;5.30;57.20;;;;;;4954708;29;20381;-65
2022/01/26 07:43:20;;;;;;;22.50;13.70;;;5.40;56.80;;;;;;4954353;28;20042;-65
2022/01/26 07:45:46;;;;;;;25.63;14.68;;;5.40;56.80;;;;;;4954302;28;20027;-65
2022/01/26 07:48:11;;;;;;;39.42;14.60;;;5.60;57.30;;;;;;4954843;29;20093;-65
2022/01/26 07:50:37;;;;;;;23.48;15.00;;;5.70;57.10;;;;;;4937119;29;20027;-65
2022/01/26 07:53:03;;;;;;;21.98;13.38;;;5.80;56.90;;;;;;4954401;28;20454;-65
2022/01/26 07:55:30;;;;;;;23.42;13.77;;;5.80;55.80;;;;;;4954359;29;20032;-65
2022/01/26 07:57:56;;;;;;;21.73;14.18;;;6.00;57.00;;;;;;4954304;28;20073;-67
2022/01/26 08:00:23;;;;;;;27.08;15.25;;;6.00;56.30;;;;;;4954156;29;20037;-65
2022/01/26 08:02:49;;;;;;;31.08;15.48;;;6.10;56.30;;;;;;4953755;29;20051;-66
2022/01/26 08:05:16;;;;;;;24.48;14.63;;;6.10;56.30;;;;;;4953894;28;20087;-66
2022/01/26 08:07:44;;;;;;;24.95;14.63;;;6.20;56.30;;;;;;4954171;28;20038;-75
2022/01/26 08:10:12;;;;;;;22.08;14.95;;;6.20;56.50;;;;;;4953767;28;20066;-66
2022/01/26 08:12:39;;;;;;;28.33;14.93;;;6.30;56.30;;;;;;4954026;29;20035;-70
2022/01/26 08:15:09;;;;;;;25.48;14.52;;;6.30;55.80;;;;;;4954112;28;20360;-70
2022/01/26 08:17:36;;;;;;;26.48;14.65;;;6.40;55.70;;;;;;4953283;28;20046;-67
2022/01/26 08:20:05;;;;;;;25.17;14.88;;;6.40;55.40;;;;;;4952236;28;20073;-67
2022/01/26 08:22:32;;;;;;;21.77;14.68;;;6.40;55.50;;;;;;4953515;28;20059;-67
2022/01/26 08:24:59;;;;;;;31.75;15.05;;;6.50;55.30;;;;;;4954282;28;20026;-67
2022/01/26 08:27:28;;;;;;;28.83;15.57;;;6.50;55.30;;;;;;4953743;28;20058;-65
2022/01/26 08:30:02;;;;;;;28.80;15.63;;;6.70;55.50;;;;;;4936406;28;20093;-68
2022/01/26 08:32:28;;;;;;;28.13;14.05;;;6.70;54.90;;;;;;4953885;28;20035;-66
2022/01/26 08:34:54;;;;;;;22.58;14.65;;;6.70;55.00;;;;;;4953796;29;20039;-66
2022/01/26 08:37:21;;;;;;;25.95;14.13;;;6.70;54.80;;;;;;4954008;28;20361;-66
2022/01/26 08:39:47;;;;;;;23.73;14.32;;;6.70;55.40;;;;;;4953675;29;20038;-70
2022/01/26 08:42:13;;;;;;;25.33;14.20;;;6.70;55.00;;;;;;4952770;29;20036;-66
2022/01/26 08:44:39;;;;;;;34.55;16.10;;;6.70;54.50;;;;;;4953717;29;20372;-72
2022/01/26 08:47:05;;;;;;;25.02;12.93;;;6.60;54.60;;;;;;4953846;28;20031;-65
2022/01/26 08:49:32;;;;;;;25.55;15.65;;;6.70;54.70;;;;;;4952694;29;20027;-67
2022/01/26 08:51:59;;;;;;;32.17;14.13;;;6.80;54.60;;;;;;4953881;29;20554;-68
2022/01/26 08:54:27;;;;;;;20.83;13.27;;;6.90;54.10;;;;;;4953680;28;20023;-66
2022/01/26 08:56:54;;;;;;;29.13;14.23;;;6.90;53.60;;;;;;4952061;28;20070;-64
2022/01/26 08:59:22;;;;;;;25.67;14.10;;;6.90;53.90;;;;;;4957240;29;20175;-69
2022/01/26 09:01:52;;;;;;;25.33;13.32;;;7.00;53.90;;;;;;4958281;28;20031;-68
2022/01/26 09:04:19;;;;;;;23.85;14.00;;;7.00;53.40;;;;;;4956569;28;20036;-67
2022/01/26 09:06:54;;;;;;;24.65;13.45;;;7.10;53.70;;;;;;4957972;28;20110;-67
2022/01/26 09:09:22;;;;;;;24.27;12.80;;;7.20;53.90;;;;;;4958243;29;20027;-67
2022/01/26 09:11:50;;;;;;;25.88;13.20;;;7.30;53.10;;;;;;4957049;28;20049;-66
2022/01/26 09:14:18;;;;;;;27.27;13.68;;;7.40;53.00;;;;;;4957548;29;20090;-65
2022/01/26 09:16:52;;;;;;;21.10;13.88;;;7.50;53.80;;;;;;4958505;29;20547;-68
2022/01/26 09:19:29;;;;;;;23.73;12.30;;;7.60;52.50;;;;;;4958449;29;20028;-68
2022/01/26 09:21:57;;;;;;;23.73;13.73;;;7.60;52.10;;;;;;4957239;28;20058;-67
2022/01/26 09:24:25;;;;;;;31.83;13.75;;;7.60;52.20;;;;;;4955612;29;20110;-65
2022/01/26 09:26:51;;;;;;;20.38;12.10;;;7.60;52.30;;;;;;4956614;28;20027;-71
2022/01/26 09:29:17;;;;;;;19.05;13.02;;;7.60;52.30;;;;;;4956732;29;20365;-66
2022/01/26 09:31:47;;;;;;;29.20;14.50;;;7.60;52.20;;;;;;4956533;29;20038;-66
2022/01/26 09:34:22;;;;;;;20.35;11.57;;;7.60;53.20;;;;;;4955022;28;20019;-72
2022/01/26 09:36:50;;;;;;;21.75;12.88;;;7.60;51.80;;;;;;4956402;28;20106;-69
2022/01/26 09:39:18;;;;;;;23.63;12.98;;;7.60;52.00;;;;;;4956616;28;20034;-65
2022/01/26 09:41:46;;;;;;;24.55;12.40;;;7.70;52.10;;;;;;4956207;29;20090;-69
2022/01/26 09:44:12;;;;;;;21.10;11.55;;;7.80;52.80;;;;;;4956354;28;20476;-67
2022/01/26 09:46:39;;;;;;;16.80;11.95;;;7.80;51.60;;;;;;4956288;28;20024;-69
2022/01/26 09:49:09;;;;;;;21.60;11.93;;;7.90;51.70;;;;;;4956104;28;20416;-67
2022/01/26 09:51:41;;;;;;;26.75;12.52;;;7.90;51.40;;;;;;4956329;29;20093;-68
2022/01/26 09:54:14;;;;;;;18.25;11.65;;;8.00;51.40;;;;;;4956291;29;20201;-67
2022/01/26 09:56:43;;;;;;;15.63;11.52;;;8.10;51.60;;;;;;4956092;29;20051;-66
2022/01/26 09:59:09;;;;;;;18.67;11.30;;;8.20;51.60;;;;;;4956257;29;20031;-70
2022/01/26 10:01:51;;;;;;;20.42;11.95;;;8.30;51.80;;;;;;4956126;29;20114;-67
2022/01/26 10:04:28;;;;;;;23.55;11.95;;;8.30;51.40;;;;;;4955782;28;20043;-66
2022/01/26 10:07:23;;;;;;;17.95;11.10;;;8.40;51.40;;;;;;4955992;28;20043;-69
2022/01/26 10:18:56;;;;;;;21.02;11.73;;;8.90;51.20;;;;;;4950423;28;20027;-73
2022/01/26 10:21:23;;;;;;;18.67;12.02;;;9.00;51.20;;;;;;4956515;29;20043;-67
2022/01/26 10:23:52;;;;;;;22.70;12.77;;;9.00;51.10;;;;;;4954879;29;20472;-70
2022/01/26 10:26:19;;;;;;;21.85;12.02;;;9.20;51.20;;;;;;4955541;28;20042;-67
2022/01/26 10:28:58;;;;;;;19.98;11.90;;;9.20;50.90;;;;;;4955297;28;20050;-70
2022/01/26 10:31:45;;;;;;;21.50;11.90;;;9.30;50.70;;;;;;4955250;28;20074;-67
2022/01/26 10:34:22;;;;;;;24.77;12.35;;;9.30;51.00;;;;;;4955550;29;20027;-71
2022/01/26 10:37:00;;;;;;;24.80;11.82;;;9.40;51.00;;;;;;4955161;28;20042;-67
2022/01/26 10:39:45;;;;;;;23.45;13.02;;;9.50;51.00;;;;;;4955225;29;20031;-69
2022/01/26 10:42:18;;;;;;;19.85;12.05;;;9.60;50.90;;;;;;4956037;28;20027;-66
2022/01/26 10:45:11;;;;;;;31.08;12.68;;;9.70;51.00;;;;;;4955565;28;20027;-68
2022/01/26 10:47:46;;;;;;;20.35;12.63;;;9.90;51.00;;;;;;4955616;28;20537;-66
2022/01/26 10:50:32;;;;;;;31.77;14.00;;;10.00;49.60;;;;;;4938101;29;20046;-66
2022/01/26 10:53:19;;;;;;;23.38;12.63;;;10.20;49.60;;;;;;4955034;28;20035;-67
2022/01/26 10:55:45;;;;;;;20.73;13.18;;;10.30;50.00;;;;;;4954051;28;20036;-70
2022/01/26 10:58:11;;;;;;;21.15;12.85;;;10.40;49.80;;;;;;4937343;29;20500;-69
2022/01/26 11:00:41;;;;;;;27.42;12.82;;;10.60;49.70;;;;;;4953518;29;20028;-69
2022/01/26 11:03:07;;;;;;;21.25;12.55;;;10.80;50.40;;;;;;4954431;29;20055;-66
2022/01/26 11:05:34;;;;;;;19.30;12.50;;;10.90;49.60;;;;;;4954817;28;20034;-65
2022/01/26 11:08:02;;;;;;;18.75;13.30;;;11.00;49.40;;;;;;4953667;28;20071;-72
2022/01/26 11:10:37;;;;;;;17.85;12.73;;;11.00;49.30;;;;;;4954551;29;20066;-71
2022/01/26 11:13:10;;;;;;;20.90;13.48;;;11.00;49.50;;;;;;4954746;28;20023;-73
2022/01/26 11:15:36;;;;;;;20.85;14.18;;;11.00;49.40;;;;;;4955148;28;20031;-65
2022/01/26 11:18:23;;;;;;;21.63;13.77;;;11.10;49.60;;;;;;4955464;29;20513;-73
2022/01/26 11:20:54;;;;;;;18.92;13.50;;;11.20;49.50;;;;;;4956625;28;20019;-70
2022/01/26 11:23:36;;;;;;;21.55;13.27;;;11.20;50.00;;;;;;4957809;28;20102;-77
2022/01/26 11:26:03;;;;;;;16.88;12.88;;;11.30;50.30;;;;;;4956615;28;20027;-68
2022/01/26 11:28:29;;;;;;;24.85;14.18;;;11.30;50.30;;;;;;4956090;29;20452;-75
2022/01/26 11:30:59;;;;;;;24.73;13.80;;;11.40;50.30;;;;;;4955597;28;20074;-66
2022/01/26 11:33:28;;;;;;;20.58;12.98;;;11.50;50.40;;;;;;4954146;28;20038;-67
2022/01/26 11:36:00;;;;;;;24.10;12.88;;;11.60;50.50;;;;;;4955309;28;20035;-73
2022/01/26 11:45:07;;;;;;;18.13;11.77;;;11.70;51.20;;;;;;4877174;29;20040;-69
2022/01/26 11:48:09;;;;;;;26.17;14.43;;;11.70;51.20;;;;;;4953029;28;20035;-74
2022/01/26 11:50:42;;;;;;;29.85;15.45;;;11.80;51.60;;;;;;4954697;28;20038;-70
2022/01/26 11:53:11;;;;;;;29.58;15.30;;;11.90;51.60;;;;;;4953667;29;20145;-71
2022/01/26 11:55:49;;;;;;;19.95;13.43;;;11.90;51.50;;;;;;4952963;29;20029;-72
2022/01/26 11:58:36;;;;;;;18.65;11.85;;;12.00;51.50;;;;;;4937284;29;20062;-70
2022/01/26 12:03:43;;;;;;;11.27;7.77;;;11.90;51.90;;;;;;4954552;28;20105;-67
2022/01/26 12:06:20;;;;;;;14.00;9.95;;;11.90;52.40;;;;;;4955401;28;20514;-69
2022/01/26 12:09:08;;;;;;;15.98;9.90;;;12.00;52.60;;;;;;4924029;29;20200;-70
2022/01/26 12:11:55;;;;;;;14.05;10.15;;;12.00;52.80;;;;;;4956184;28;20142;-66
2022/01/26 12:14:22;;;;;;;15.38;10.13;;;12.00;52.50;;;;;;4940418;29;20046;-68
2022/01/26 12:16:51;;;;;;;14.98;10.60;;;11.90;53.00;;;;;;4951903;29;20110;-69
2022/01/26 12:34:03;;;;;;;17.20;11.40;;;12.80;52.20;;;;;;4955471;28;20050;-70
2022/01/26 12:45:08;;;;;;;16.75;10.77;;;13.10;51.60;;;;;;4958589;29;20035;-69
2022/01/26 12:47:35;;;;;;;14.18;10.15;;;13.20;51.50;;;;;;4956758;28;20039;-75
2022/01/26 12:50:03;;;;;;;17.25;11.02;;;13.20;51.90;;;;;;4957686;28;20477;-72
2022/01/26 12:52:29;;;;;;;14.07;10.48;;;13.10;52.00;;;;;;4956604;29;20035;-81
2022/01/26 12:54:59;;;;;;;16.65;10.80;;;13.10;52.20;;;;;;4956279;29;20031;-67
2022/01/26 12:57:25;;;;;;;14.18;10.05;;;13.00;52.20;;;;;;4957513;28;20523;-67
2022/01/26 13:00:06;;;;;;;15.02;10.43;;;13.00;52.30;;;;;;4957776;29;20046;-71
2022/01/26 13:02:34;;;;;;;16.05;10.40;;;13.00;52.00;;;;;;4957272;28;20038;-73
2022/01/26 13:05:02;;;;;;;17.30;10.85;;;13.00;52.10;;;;;;4957454;29;20082;-76
2022/01/26 13:07:29;;;;;;;14.82;9.88;;;13.00;52.70;;;;;;4956373;28;20043;-81
2022/01/26 13:09:57;;;;;;;13.98;10.10;;;13.00;52.60;;;;;;4957298;29;20027;-74
2022/01/26 13:12:57;;;;;;;15.73;10.13;;;13.00;52.40;;;;;;4959320;29;20031;-70
2022/01/26 13:15:38;;;;;;;15.60;10.38;;;13.00;52.40;;;;;;4959187;29;20042;-68
2022/01/26 13:18:48;;;;;;;17.10;10.98;;;13.00;52.80;;;;;;4960408;29;20031;-68
2022/01/26 13:24:25;;;;;;;17.45;10.10;;;13.00;53.00;;;;;;4942328;29;20039;-73
2022/01/26 13:35:49;;;;;;;15.60;10.45;;;12.70;53.20;;;;;;4956750;29;20050;-75
2022/01/26 13:54:44;;;;;;;15.40;10.40;;;12.60;54.10;;;;;;4956377;28;20062;-67
2022/01/26 14:00:00;;;;;;;17.75;11.45;;;12.50;54.10;;;;;;4919701;29;20031;-73
2022/01/26 14:02:31;;;;;;;18.45;11.07;;;12.50;54.30;;;;;;4956086;29;20066;-71
2022/01/26 14:04:57;;;;;;;19.08;11.30;;;12.50;54.50;;;;;;4956209;29;20059;-75
2022/01/26 14:07:28;;;;;;;22.15;11.90;;;12.50;54.70;;;;;;4956490;28;20038;-73
2022/01/26 14:09:54;;;;;;;18.27;11.75;;;12.50;54.80;;;;;;4955764;28;20130;-68
2022/01/26 14:12:27;;;;;;;17.00;11.63;;;12.50;54.80;;;;;;4956121;28;20035;-71
2022/01/26 14:14:57;;;;;;;21.57;12.23;;;12.50;54.90;;;;;;4955471;28;20066;-74
2022/01/26 14:17:58;;;;;;;21.42;12.05;;;12.50;54.90;;;;;;4955509;29;20027;-73
2022/01/26 14:20:49;;;;;;;18.85;11.90;;;12.60;55.00;;;;;;4955546;29;20039;-68
2022/01/26 14:25:47;;;;;;;19.60;11.82;;;12.60;54.90;;;;;;4957114;29;20090;-67
2022/01/26 14:28:17;;;;;;;21.17;12.13;;;12.70;55.10;;;;;;4956626;28;20488;-66
2022/01/26 14:30:56;;;;;;;21.15;13.43;;;12.70;55.30;;;;;;4956360;28;20330;-67
2022/01/26 14:53:16;;;;;;;24.88;12.95;;;12.80;55.50;;;;;;4955797;29;20090;-71
2022/01/26 14:56:02;;;;;;;19.88;13.00;;;12.80;55.50;;;;;;4953629;28;20027;-66
2022/01/26 15:52:13;;;;;;;22.38;13.75;;;12.40;58.50;;;;;;4952854;28;20023;-65
2022/01/26 16:06:18;;;;;;;20.23;13.65;;;12.30;58.90;;;;;;4954119;28;20078;-73
2022/01/26 16:20:15;;;;;;;22.73;14.35;;;12.20;59.40;;;;;;4940894;29;20086;-71
2022/01/26 18:07:23;;;;;;;22.33;15.13;;;11.70;62.60;;;;;;4860062;29;20053;-73
2022/01/26 18:26:41;;;;;;;25.65;16.92;;;11.70;63.40;;;;;;4958575;29;20050;-65
2022/01/26 18:32:17;;;;;;;24.58;17.00;;;11.70;63.20;;;;;;4957605;28;20507;-66
2022/01/26 18:50:58;;;;;;;;;;;11.70;64.30;;;;;;4959343;28;20110;-70
2022/01/26 18:53:25;;;;;;;25.35;18.58;;;11.70;64.50;;;;;;4957909;28;19977;-69
2022/01/26 18:55:51;;;;;;;30.13;19.58;;;11.70;64.10;;;;;;4956734;29;20023;-68
2022/01/26 18:58:17;;;;;;;30.55;19.30;;;11.70;63.90;;;;;;4955523;29;20055;-66
2022/01/26 19:00:45;;;;;;;28.95;19.35;;;11.70;64.20;;;;;;4955854;29;20039;-69
2022/01/26 19:03:12;;;;;;;23.98;18.02;;;11.70;64.60;;;;;;4955907;28;20027;-69
2022/01/26 19:05:38;;;;;;;24.92;17.75;;;11.70;64.70;;;;;;4955900;28;20122;-67
2022/01/26 19:08:04;;;;;;;29.23;18.30;;;11.70;65.00;;;;;;4955565;29;20480;-71
2022/01/26 19:10:30;;;;;;;28.00;19.77;;;11.70;64.90;;;;;;4955640;28;20109;-73
2022/01/26 19:12:57;;;;;;;32.83;20.05;;;11.70;65.10;;;;;;4955765;29;20023;-71
2022/01/26 19:15:26;;;;;;;29.05;18.90;;;11.70;65.30;;;;;;4953100;28;20039;-66
2022/01/26 19:18:02;;;;;;;29.33;18.60;;;11.70;65.40;;;;;;4955642;29;20023;-68
2022/01/26 19:20:47;;;;;;;30.48;20.45;;;11.70;65.40;;;;;;4954869;28;20054;-74
2022/01/26 19:23:35;;;;;;;31.08;19.48;;;11.70;65.60;;;;;;4955651;28;20102;-83
2022/01/26 19:26:09;;;;;;;29.90;19.83;;;11.80;65.80;;;;;;4955223;28;20030;-69
2022/01/26 19:28:46;;;;;;;;;;;11.80;66.30;;;;;;4956016;29;20202;-71
2022/01/26 19:45:02;;;;;;;31.70;21.27;;;11.80;66.20;;;;;;4935284;29;20047;-70
2022/01/26 19:52:57;;;;;;;32.03;22.42;;;11.70;66.40;;;;;;4953529;28;20115;-68
2022/01/26 19:55:26;;;;;;;31.63;20.88;;;11.70;66.30;;;;;;4954610;29;20086;-72
2022/01/26 19:57:53;;;;;;;29.23;21.73;;;11.70;66.40;;;;;;4954606;28;20055;-75